Impacts TAF Board INFO
FOR SITUATIONAL AWARENESS. NOT TO BE USED FOR FLIGHT PLANNING PURPOSES.
IDs:

KDEN - Denver Intl, CO, US

Issued at 0859 UTC 23 May 2018
Updated at 1101 UTC 23 May 2018
Potential Impact None Slight Moderate High
Time<<23/23Z 24/00Z 24/01Z 24/02Z 24/03Z 24/04Z 24/05Z 24/06Z 24/07Z 24/08Z 24/09Z 24/10Z 24/11Z>>
Type PRVL PRVL PRVL PRVL PRVL PRVL PRVL PRVL PRVL PRVL PRVL PRVL PRVL
VIS >6 >6 >6 >6 >6 >6 >6 >6 >6 >6 >6 >6 >6
CIG -- -- -- 200 200 200 200 200 200 200 200 200 200
Cover SCT SCT SCT BKN BKN BKN BKN BKN BKN BKN BKN BKN BKN
FltCat VFR VFR VFR VFR VFR VFR VFR VFR VFR VFR VFR VFR VFR
WX -- -- -- -- -- -- -- -- -- -- -- -- --
WDir 160 160 160 220 220 220 220 220 220 220 220 220 220
WSpd 14 14 14 10 10 10 10 10 10 10 10 10 10
WGst 22 22 22 -- -- -- -- -- -- -- -- -- --

Raw TAF
KDEN 230859Z 2309/2412 21010KT P6SM FEW140 SCT220
  FM231300 24005KT P6SM FEW140
  FM232000 16014G22KT P6SM FEW100 SCT150
  FM240200 22010KT P6SM SCT120 BKN200


METAR Board
Radar Display
Forecast Discussion

FOR SITUATIONAL AWARENESS. NOT TO BE USED FOR FLIGHT PLANNING PURPOSES.